Time;durP1;ratioP1;P1;durP2;ratioP2;P2;SDS_P1;SDS_P2;PMS_P1;PMS_P2;Temp;Humidity;BMP_temperature;BMP_pressure;BME280_temperature;BME280_humidity;BME280_pressure;Samples;Min_cycle;Max_cycle;Signal;HPM_P1;HPM_P2
2022/09/14 00:01:18;;;;;;;3.83;2.75;;;17.50;70.40;;;;;;5050735;28;20025;-75
2022/09/14 00:03:46;;;;;;;4.35;2.80;;;17.50;70.50;;;;;;5048729;28;20426;-75
2022/09/14 00:06:14;;;;;;;3.05;2.47;;;17.40;70.30;;;;;;5045970;28;20079;-74
2022/09/14 00:08:41;;;;;;;4.65;2.72;;;17.50;70.60;;;;;;5052322;28;20025;-74
2022/09/14 00:11:10;;;;;;;7.45;3.30;;;17.40;70.50;;;;;;5048336;28;20037;-73
2022/09/14 00:13:38;;;;;;;5.45;3.25;;;17.40;70.50;;;;;;5041113;28;20029;-74
2022/09/14 00:16:11;;;;;;;5.15;2.75;;;17.40;70.50;;;;;;5046001;28;20052;-73
2022/09/14 00:18:37;;;;;;;5.65;3.10;;;17.40;70.60;;;;;;5048070;28;20043;-74
2022/09/14 00:21:06;;;;;;;6.65;3.13;;;17.40;70.60;;;;;;5046644;28;20036;-73
2022/09/14 00:23:35;;;;;;;5.20;2.97;;;17.40;70.70;;;;;;5027416;28;20226;-74
2022/09/14 00:26:09;;;;;;;5.72;2.97;;;17.40;70.70;;;;;;5048950;28;20045;-75
2022/09/14 00:28:53;;;;;;;4.40;2.85;;;17.40;70.70;;;;;;5049134;28;20025;-74
2022/09/14 00:31:20;;;;;;;3.97;2.78;;;17.40;70.80;;;;;;5045228;28;20029;-73
2022/09/14 00:33:48;;;;;;;4.38;2.70;;;17.40;70.70;;;;;;5048121;28;20071;-75
2022/09/14 00:36:24;;;;;;;3.65;2.70;;;17.40;70.80;;;;;;5047838;28;20048;-74
2022/09/14 00:38:50;;;;;;;3.45;2.88;;;17.40;71.40;;;;;;5055280;28;20031;-74
2022/09/14 00:41:19;;;;;;;3.70;3.13;;;17.40;70.80;;;;;;5042620;28;20422;-74
2022/09/14 00:43:59;;;;;;;4.63;2.72;;;17.40;70.90;;;;;;5051917;28;20392;-74
2022/09/14 00:46:28;;;;;;;5.15;3.17;;;17.40;70.90;;;;;;5044681;28;20033;-74
2022/09/14 00:48:57;;;;;;;3.53;2.65;;;17.40;70.90;;;;;;5047392;28;20053;-74
2022/09/14 00:51:24;;;;;;;3.03;2.72;;;17.40;70.90;;;;;;5047756;28;20493;-74
2022/09/14 00:53:51;;;;;;;4.75;2.75;;;17.40;70.90;;;;;;5044570;28;20037;-75
2022/09/14 00:56:17;;;;;;;3.55;2.85;;;17.40;70.90;;;;;;5045583;28;20033;-75
2022/09/14 00:58:49;;;;;;;4.07;3.22;;;17.40;70.90;;;;;;5048576;28;20029;-74
2022/09/14 01:01:16;;;;;;;4.00;3.15;;;17.40;70.90;;;;;;5048330;28;20044;-74
2022/09/14 01:03:42;;;;;;;3.42;2.92;;;17.40;70.90;;;;;;5047650;28;20032;-74
2022/09/14 01:06:17;;;;;;;2.80;2.60;;;17.40;70.90;;;;;;5041459;28;20049;-74
2022/09/14 01:08:55;;;;;;;3.38;2.95;;;17.40;71.00;;;;;;5048133;28;20040;-74
2022/09/14 01:11:42;;;;;;;3.78;3.28;;;17.30;70.90;;;;;;5048083;28;20032;-74
2022/09/14 01:14:17;;;;;;;4.88;2.72;;;17.30;70.90;;;;;;5040778;28;20029;-74
2022/09/14 01:17:24;;;;;;;3.58;3.20;;;17.30;70.90;;;;;;5026904;28;20056;-74
2022/09/14 01:20:06;;;;;;;4.80;2.25;;;17.30;71.00;;;;;;5038979;28;20043;-75
2022/09/14 01:22:54;;;;;;;3.40;2.70;;;17.30;71.00;;;;;;5045486;28;20717;-75
2022/09/14 01:25:59;;;;;;;3.08;2.63;;;17.30;71.00;;;;;;5039758;28;20392;-74
2022/09/14 01:28:34;;;;;;;4.40;2.38;;;17.20;70.90;;;;;;5045764;28;20036;-75
2022/09/14 01:31:04;;;;;;;4.93;2.53;;;17.30;71.00;;;;;;5044044;28;20048;-75
2022/09/14 01:33:59;;;;;;;4.38;2.92;;;17.20;70.90;;;;;;5048038;28;20035;-76
2022/09/14 01:36:26;;;;;;;3.60;2.28;;;17.20;70.90;;;;;;5039557;28;20022;-73
2022/09/14 01:38:54;;;;;;;4.70;2.10;;;17.20;70.90;;;;;;5044930;28;20041;-74
2022/09/14 01:41:25;;;;;;;4.30;2.65;;;17.20;70.90;;;;;;5047103;28;20428;-73
2022/09/14 01:43:56;;;;;;;3.85;2.20;;;17.20;70.90;;;;;;5046005;28;20696;-73
2022/09/14 01:46:30;;;;;;;4.43;2.35;;;17.30;71.10;;;;;;5049274;28;20534;-75
2022/09/14 01:49:12;;;;;;;4.95;2.25;;;17.20;71.00;;;;;;5053731;28;20173;-74
2022/09/14 01:51:41;;;;;;;4.53;2.72;;;17.20;71.00;;;;;;5063831;28;20035;-74
2022/09/14 01:54:22;;;;;;;5.13;2.63;;;17.20;70.90;;;;;;5059585;28;20021;-74
2022/09/14 01:57:12;;;;;;;5.20;2.65;;;17.20;71.00;;;;;;5050031;28;20041;-74
2022/09/14 01:59:45;;;;;;;3.05;2.38;;;17.30;71.10;;;;;;5034070;28;20115;-74
2022/09/14 02:02:31;;;;;;;3.10;2.80;;;17.20;70.90;;;;;;5054501;28;20032;-73
2022/09/14 02:05:11;;;;;;;3.97;3.20;;;17.20;71.00;;;;;;5050018;28;20095;-74
2022/09/14 02:07:37;;;;;;;4.65;2.95;;;17.20;70.90;;;;;;5042231;28;20041;-75
2022/09/14 02:10:08;;;;;;;4.55;3.67;;;17.20;70.90;;;;;;5054950;28;20040;-73
2022/09/14 02:12:35;;;;;;;4.72;3.20;;;17.20;70.90;;;;;;5054494;28;20112;-74
2022/09/14 02:15:02;;;;;;;4.70;3.55;;;17.20;71.00;;;;;;5049007;28;20033;-74
2022/09/14 02:17:30;;;;;;;7.90;4.00;;;17.20;71.10;;;;;;5042134;28;20086;-73
2022/09/14 02:20:00;;;;;;;5.43;4.20;;;17.20;71.00;;;;;;5053135;28;20094;-74
2022/09/14 02:22:28;;;;;;;5.65;4.28;;;17.20;71.00;;;;;;5058585;28;20299;-73
2022/09/14 02:24:54;;;;;;;8.25;5.13;;;17.20;71.10;;;;;;5046316;28;20112;-73
2022/09/14 02:27:20;;;;;;;5.85;4.65;;;17.20;71.10;;;;;;5050404;28;20071;-75
2022/09/14 02:29:47;;;;;;;10.02;5.35;;;17.20;71.10;;;;;;5050443;28;20108;-74
2022/09/14 02:32:43;;;;;;;6.95;5.68;;;17.20;71.20;;;;;;5048383;28;20107;-72
2022/09/14 02:35:24;;;;;;;6.07;5.38;;;17.10;71.10;;;;;;5047829;28;20028;-73
2022/09/14 02:38:18;;;;;;;6.28;5.25;;;17.10;71.00;;;;;;5049743;28;20025;-73
2022/09/14 02:41:13;;;;;;;5.50;4.93;;;17.10;71.00;;;;;;5049759;28;20033;-74
2022/09/14 02:43:38;;;;;;;7.18;6.45;;;17.10;71.00;;;;;;5047120;28;20481;-73
2022/09/14 02:46:23;;;;;;;8.25;6.15;;;17.10;71.00;;;;;;5049511;28;20021;-73
2022/09/14 02:49:11;;;;;;;8.43;6.68;;;17.10;71.00;;;;;;5026067;28;20159;-74
2022/09/14 02:52:00;;;;;;;7.70;6.78;;;17.10;71.00;;;;;;5049632;28;20029;-74
2022/09/14 02:54:32;;;;;;;8.32;7.53;;;17.10;71.00;;;;;;5049051;28;20041;-75
2022/09/14 02:57:00;;;;;;;7.75;6.22;;;17.00;70.80;;;;;;5058649;28;20037;-75
2022/09/14 02:59:26;;;;;;;7.82;6.97;;;17.10;70.90;;;;;;5063432;28;20037;-75
2022/09/14 03:01:52;;;;;;;8.70;7.45;;;17.10;70.90;;;;;;5059857;28;20059;-74
2022/09/14 03:04:18;;;;;;;9.13;7.70;;;17.00;70.70;;;;;;5063667;28;20031;-75
2022/09/14 03:06:44;;;;;;;9.35;7.43;;;17.10;70.90;;;;;;5067744;28;20033;-75
2022/09/14 03:09:10;;;;;;;8.63;7.82;;;17.00;70.70;;;;;;5051977;28;20116;-74
2022/09/14 03:11:38;;;;;;;9.18;7.72;;;17.00;70.70;;;;;;5052097;28;20082;-73
2022/09/14 03:14:04;;;;;;;8.82;7.57;;;17.00;70.70;;;;;;5052177;28;20036;-74
2022/09/14 03:16:30;;;;;;;9.95;8.93;;;17.00;70.70;;;;;;5069598;28;20031;-74
2022/09/14 03:18:57;;;;;;;11.85;9.10;;;17.00;70.70;;;;;;5054040;28;20040;-74
2022/09/14 03:21:23;;;;;;;9.63;7.78;;;17.00;70.70;;;;;;5055691;28;20029;-76
2022/09/14 03:23:51;;;;;;;9.70;8.70;;;17.00;70.70;;;;;;5050571;28;20389;-75
2022/09/14 03:26:20;;;;;;;9.23;8.32;;;17.00;70.70;;;;;;5049714;28;20022;-74
2022/09/14 03:28:54;;;;;;;8.82;8.02;;;17.00;70.70;;;;;;5050919;28;20043;-74
2022/09/14 03:31:20;;;;;;;8.80;7.80;;;16.90;70.50;;;;;;5049885;28;20047;-74
2022/09/14 03:33:50;;;;;;;9.60;7.93;;;16.90;70.50;;;;;;5053741;28;20025;-75
2022/09/14 03:36:18;;;;;;;9.63;8.63;;;16.90;70.50;;;;;;5051329;28;20025;-74
2022/09/14 03:38:46;;;;;;;9.45;8.43;;;16.90;70.50;;;;;;5053242;28;20035;-75
2022/09/14 03:41:13;;;;;;;9.63;8.45;;;16.90;70.50;;;;;;5045325;28;20033;-74
2022/09/14 03:43:39;;;;;;;10.57;8.32;;;16.90;70.50;;;;;;5029187;28;20036;-75
2022/09/14 03:46:12;;;;;;;12.05;9.38;;;16.90;70.50;;;;;;5046234;28;20041;-74
2022/09/14 03:48:39;;;;;;;10.93;9.27;;;16.90;70.50;;;;;;5052065;28;20045;-73
2022/09/14 03:51:07;;;;;;;10.00;8.85;;;16.80;70.30;;;;;;5048670;28;20044;-75
2022/09/14 03:53:33;;;;;;;12.85;9.98;;;16.80;70.30;;;;;;5054544;28;20419;-73
2022/09/14 03:56:00;;;;;;;10.20;9.27;;;16.80;70.20;;;;;;5045916;28;20438;-74
2022/09/14 03:58:30;;;;;;;10.20;8.95;;;16.80;70.20;;;;;;5063335;28;20032;-74
2022/09/14 04:01:09;;;;;;;10.45;8.95;;;16.80;70.20;;;;;;5050492;28;20029;-74
2022/09/14 04:03:35;;;;;;;12.48;9.60;;;16.80;70.20;;;;;;5043520;28;20564;-74
2022/09/14 04:06:06;;;;;;;9.93;8.40;;;16.80;70.20;;;;;;5049473;28;20032;-75
2022/09/14 04:08:35;;;;;;;9.63;8.70;;;16.80;70.10;;;;;;5049753;28;20033;-75
2022/09/14 04:11:16;;;;;;;10.63;9.52;;;16.80;70.10;;;;;;5049934;28;20041;-73
2022/09/14 04:13:43;;;;;;;10.98;9.98;;;16.80;70.10;;;;;;5050955;28;20043;-74
2022/09/14 04:16:10;;;;;;;9.65;8.75;;;16.80;70.60;;;;;;5042870;28;20079;-74
2022/09/14 04:18:36;;;;;;;10.85;9.73;;;16.80;70.00;;;;;;5051405;28;20091;-74
2022/09/14 04:21:06;;;;;;;10.02;9.02;;;16.80;70.00;;;;;;5049933;28;20039;-74
2022/09/14 04:23:32;;;;;;;10.07;9.05;;;16.80;70.00;;;;;;5051071;28;20377;-74
2022/09/14 04:25:58;;;;;;;10.88;9.25;;;16.80;70.00;;;;;;5050883;28;20048;-75
2022/09/14 04:28:25;;;;;;;10.20;9.20;;;16.70;69.80;;;;;;5061760;28;20036;-73
2022/09/14 04:30:59;;;;;;;10.13;9.20;;;16.70;69.80;;;;;;5052187;28;20310;-74
2022/09/14 04:33:30;;;;;;;11.18;8.95;;;16.70;69.80;;;;;;5024891;28;20052;-74
2022/09/14 04:36:01;;;;;;;10.18;8.57;;;16.60;69.60;;;;;;5049185;28;20033;-73
2022/09/14 04:38:29;;;;;;;10.55;8.35;;;16.60;69.70;;;;;;5052187;28;20036;-74
2022/09/14 04:40:57;;;;;;;10.52;8.43;;;16.60;69.60;;;;;;5051474;28;20020;-75
2022/09/14 04:43:25;;;;;;;10.93;9.30;;;16.60;69.60;;;;;;5039939;28;20033;-73
2022/09/14 04:45:51;;;;;;;9.85;8.85;;;16.60;70.20;;;;;;5050682;28;20058;-74
2022/09/14 04:48:18;;;;;;;9.68;8.68;;;16.60;69.70;;;;;;5046121;28;20048;-75
2022/09/14 04:50:44;;;;;;;10.80;8.68;;;16.60;69.70;;;;;;5042203;28;20063;-73
2022/09/14 04:53:10;;;;;;;9.75;8.10;;;16.60;69.70;;;;;;5048024;28;20036;-74
2022/09/14 04:55:37;;;;;;;8.63;7.82;;;16.50;69.50;;;;;;5041307;28;20032;-73
2022/09/14 04:58:04;;;;;;;9.88;8.43;;;16.60;69.70;;;;;;5045404;28;20665;-74
2022/09/14 05:00:33;;;;;;;10.18;8.35;;;16.60;69.70;;;;;;5047480;28;20554;-74
2022/09/14 05:02:59;;;;;;;10.15;9.10;;;16.50;69.50;;;;;;5050869;28;20029;-73
2022/09/14 05:05:26;;;;;;;8.52;7.60;;;16.50;69.50;;;;;;5047338;28;20029;-74
2022/09/14 05:07:52;;;;;;;11.30;8.77;;;16.50;69.50;;;;;;5044823;28;20109;-73
2022/09/14 05:10:18;;;;;;;8.88;7.97;;;16.50;69.50;;;;;;5046338;28;20036;-75
2022/09/14 05:12:44;;;;;;;17.23;10.10;;;16.50;69.50;;;;;;5047585;28;20069;-75
2022/09/14 05:15:10;;;;;;;8.45;7.45;;;16.50;69.50;;;;;;5043332;28;20026;-73
2022/09/14 05:17:36;;;;;;;9.55;8.60;;;16.50;69.50;;;;;;5042612;28;20056;-74
2022/09/14 05:20:03;;;;;;;7.85;7.05;;;16.50;69.50;;;;;;5049112;28;20029;-75
2022/09/14 05:22:29;;;;;;;9.02;7.80;;;16.40;69.30;;;;;;5040308;28;20047;-75
2022/09/14 05:24:55;;;;;;;8.07;7.28;;;16.40;69.30;;;;;;5046989;28;20045;-74
2022/09/14 05:27:21;;;;;;;9.02;8.13;;;16.40;69.30;;;;;;5044725;28;20044;-74
2022/09/14 05:29:47;;;;;;;8.65;7.60;;;16.30;69.20;;;;;;5049306;28;20040;-75
2022/09/14 05:32:14;;;;;;;9.30;8.10;;;16.30;69.20;;;;;;5048570;28;20032;-74
2022/09/14 05:34:40;;;;;;;12.40;9.15;;;16.30;69.20;;;;;;5048961;28;20043;-75
2022/09/14 05:37:09;;;;;;;8.73;7.82;;;16.30;69.20;;;;;;5042075;28;20400;-74
2022/09/14 05:39:36;;;;;;;11.27;8.50;;;16.20;69.00;;;;;;5046349;28;20492;-75
2022/09/14 05:42:03;;;;;;;10.45;8.77;;;16.20;69.10;;;;;;5049038;28;20089;-75
2022/09/14 05:44:30;;;;;;;9.55;8.65;;;16.20;69.20;;;;;;5014156;28;20048;-76
2022/09/14 05:46:57;;;;;;;11.25;8.43;;;16.20;69.20;;;;;;5046766;28;20037;-75
2022/09/14 05:49:27;;;;;;;9.48;8.27;;;16.10;69.10;;;;;;5044978;28;20083;-75
2022/09/14 05:51:52;;;;;;;7.93;7.13;;;16.10;69.10;;;;;;5044274;28;20035;-72
2022/09/14 05:54:18;;;;;;;9.00;7.57;;;16.10;69.20;;;;;;5046689;28;20033;-78
2022/09/14 05:56:44;;;;;;;8.60;7.78;;;16.10;69.20;;;;;;5042716;28;20392;-74
2022/09/14 05:59:10;;;;;;;9.93;7.82;;;16.00;69.10;;;;;;5044156;28;20041;-74
2022/09/14 06:01:38;;;;;;;8.38;7.50;;;16.10;69.20;;;;;;5053941;28;20558;-75
2022/09/14 06:04:04;;;;;;;8.23;7.03;;;16.00;69.10;;;;;;5052816;28;20245;-74
2022/09/14 06:06:31;;;;;;;9.35;7.03;;;16.00;69.10;;;;;;5052450;28;20400;-74
2022/09/14 06:08:57;;;;;;;9.13;6.95;;;16.00;69.00;;;;;;5048154;28;20122;-74
2022/09/14 06:11:27;;;;;;;9.82;6.88;;;16.00;69.00;;;;;;5044546;28;20039;-74
2022/09/14 06:13:54;;;;;;;7.80;6.28;;;16.00;69.00;;;;;;5039729;28;20034;-75
2022/09/14 06:16:21;;;;;;;8.30;6.30;;;16.10;69.10;;;;;;5046145;28;20484;-75
2022/09/14 06:18:49;;;;;;;6.60;5.90;;;16.10;69.00;;;;;;5041916;28;20531;-72
2022/09/14 06:21:18;;;;;;;7.65;5.75;;;16.10;69.00;;;;;;5045478;28;20040;-74
2022/09/14 06:23:45;;;;;;;6.78;5.78;;;16.10;68.90;;;;;;5026721;28;20021;-75
2022/09/14 06:26:11;;;;;;;7.22;6.10;;;16.20;69.00;;;;;;5046652;28;20106;-74
2022/09/14 06:28:38;;;;;;;6.70;5.97;;;16.20;68.90;;;;;;5047448;28;20031;-75
2022/09/14 06:31:06;;;;;;;8.32;5.40;;;16.20;68.90;;;;;;5048824;28;20036;-76
2022/09/14 06:33:33;;;;;;;7.97;6.18;;;16.20;68.90;;;;;;5042887;28;20025;-74
2022/09/14 06:36:01;;;;;;;6.55;5.72;;;16.20;68.70;;;;;;5044749;28;20049;-79
2022/09/14 06:38:28;;;;;;;10.25;5.75;;;16.20;68.70;;;;;;5058787;28;20031;-75
2022/09/14 06:41:00;;;;;;;6.55;5.90;;;16.30;68.80;;;;;;5054590;28;20172;-75
2022/09/14 06:43:29;;;;;;;6.28;5.68;;;16.30;68.70;;;;;;5044743;28;20320;-74
2022/09/14 06:46:06;;;;;;;7.53;5.45;;;16.40;68.70;;;;;;5049590;28;20041;-74
2022/09/14 06:48:35;;;;;;;5.72;4.97;;;16.50;68.80;;;;;;5044069;28;20041;-76
2022/09/14 06:51:15;;;;;;;6.30;5.45;;;16.50;68.60;;;;;;5050263;28;20036;-73
2022/09/14 06:53:42;;;;;;;7.15;5.85;;;16.60;68.60;;;;;;5051062;28;20432;-75
2022/09/14 06:56:08;;;;;;;6.03;5.43;;;16.70;68.50;;;;;;5048256;28;20033;-75
2022/09/14 06:58:34;;;;;;;7.03;4.80;;;16.80;68.50;;;;;;5055060;28;20104;-74
2022/09/14 07:01:01;;;;;;;8.93;5.40;;;16.80;68.30;;;;;;5033005;28;20101;-76
2022/09/14 07:03:27;;;;;;;5.88;4.82;;;16.90;68.30;;;;;;5047259;28;20025;-74
2022/09/14 07:06:05;;;;;;;7.78;5.22;;;17.00;68.30;;;;;;5048639;28;20086;-74
2022/09/14 07:08:32;;;;;;;7.10;5.32;;;17.00;68.10;;;;;;5053406;28;20035;-75
2022/09/14 07:10:59;;;;;;;8.57;5.07;;;17.10;68.30;;;;;;5050006;28;20041;-75
2022/09/14 07:13:26;;;;;;;5.47;4.97;;;17.10;67.90;;;;;;5048856;28;20032;-76
2022/09/14 07:15:52;;;;;;;5.40;4.57;;;17.20;67.90;;;;;;5049422;28;20043;-74
2022/09/14 07:18:17;;;;;;;8.63;5.43;;;17.20;67.80;;;;;;5047600;28;20033;-76
2022/09/14 07:20:43;;;;;;;4.82;4.43;;;17.30;67.90;;;;;;5048405;28;20074;-76
2022/09/14 07:23:11;;;;;;;8.45;5.10;;;17.30;67.70;;;;;;5038081;28;20051;-76
2022/09/14 07:25:38;;;;;;;4.90;4.43;;;17.40;67.70;;;;;;5053810;28;20021;-75
2022/09/14 07:28:04;;;;;;;9.15;4.90;;;17.40;67.60;;;;;;5054299;28;20028;-75
2022/09/14 07:30:33;;;;;;;6.93;5.88;;;17.40;67.40;;;;;;5057384;28;20049;-74
2022/09/14 07:32:59;;;;;;;6.85;5.18;;;17.50;67.40;;;;;;5063178;28;20424;-76
2022/09/14 07:35:25;;;;;;;5.70;4.10;;;17.60;67.50;;;;;;5053131;28;20322;-76
2022/09/14 07:37:50;;;;;;;5.30;3.85;;;17.70;67.50;;;;;;5056342;28;20032;-75
2022/09/14 07:40:17;;;;;;;5.90;4.45;;;17.70;67.30;;;;;;5030876;28;20059;-75
2022/09/14 07:42:49;;;;;;;4.38;3.95;;;17.80;67.20;;;;;;5053093;28;20506;-75
2022/09/14 07:45:15;;;;;;;6.13;3.53;;;17.90;67.10;;;;;;5047794;28;20355;-75
2022/09/14 07:47:41;;;;;;;7.43;2.92;;;18.00;67.10;;;;;;5045265;28;21310;-78
2022/09/14 07:50:08;;;;;;;3.95;3.35;;;18.10;67.10;;;;;;5051119;28;20048;-77
2022/09/14 07:52:34;;;;;;;6.90;3.70;;;18.10;66.80;;;;;;5015722;28;20037;-75
2022/09/14 07:55:00;;;;;;;5.95;3.10;;;18.20;66.90;;;;;;5048990;28;20511;-74
2022/09/14 07:57:26;;;;;;;5.90;3.70;;;18.20;66.70;;;;;;5047134;28;20045;-73
2022/09/14 07:59:53;;;;;;;5.07;3.13;;;18.20;66.60;;;;;;5043620;28;20036;-74
2022/09/14 08:02:22;;;;;;;6.13;3.25;;;18.30;66.70;;;;;;5052412;28;20519;-75
2022/09/14 08:04:47;;;;;;;4.60;4.15;;;18.20;66.50;;;;;;5049458;28;20029;-81
2022/09/14 08:07:13;;;;;;;4.20;3.80;;;18.20;66.50;;;;;;5044499;28;20033;-77
2022/09/14 08:09:39;;;;;;;5.68;3.80;;;18.20;66.40;;;;;;5048407;28;20507;-77
2022/09/14 08:12:05;;;;;;;6.28;3.63;;;18.20;66.40;;;;;;5049500;28;20033;-77
2022/09/14 08:14:31;;;;;;;3.70;3.28;;;18.20;66.90;;;;;;5044280;28;20554;-75
2022/09/14 08:16:58;;;;;;;6.57;3.30;;;18.10;66.10;;;;;;5049253;28;20283;-75
2022/09/14 08:19:25;;;;;;;5.53;3.42;;;18.10;66.20;;;;;;5047853;28;20053;-75
2022/09/14 08:21:51;;;;;;;4.40;3.10;;;18.10;66.10;;;;;;5047609;28;20472;-75
2022/09/14 08:24:19;;;;;;;4.07;3.03;;;18.10;66.20;;;;;;5039215;28;20388;-75
2022/09/14 08:26:46;;;;;;;4.22;3.28;;;18.00;66.00;;;;;;5042021;28;20052;-76
2022/09/14 08:29:13;;;;;;;5.07;3.40;;;18.00;66.00;;;;;;5047953;28;20037;-74
2022/09/14 08:31:39;;;;;;;6.50;3.60;;;18.00;66.10;;;;;;5031505;28;20049;-75
2022/09/14 08:34:06;;;;;;;7.07;3.83;;;17.90;65.90;;;;;;5029210;28;20035;-75
2022/09/14 08:36:35;;;;;;;6.43;3.28;;;17.90;66.50;;;;;;5052612;28;20041;-74
2022/09/14 08:39:01;;;;;;;5.63;3.30;;;17.90;66.00;;;;;;5052640;28;20021;-75
2022/09/14 08:41:32;;;;;;;6.90;3.65;;;17.90;66.00;;;;;;5050583;28;20017;-82
2022/09/14 08:44:33;;;;;;;4.22;3.08;;;17.80;65.90;;;;;;5056641;28;20434;-74
2022/09/14 08:47:02;;;;;;;6.85;3.47;;;17.80;66.70;;;;;;5042011;28;20041;-75
2022/09/14 08:49:37;;;;;;;6.72;4.50;;;17.80;66.20;;;;;;5039065;28;20057;-74
2022/09/14 08:52:04;;;;;;;5.70;3.67;;;17.70;66.10;;;;;;5044162;28;20849;-75
2022/09/14 08:54:32;;;;;;;7.35;3.80;;;17.80;66.30;;;;;;5041877;28;20503;-75
2022/09/14 08:57:24;;;;;;;5.32;3.50;;;17.70;66.10;;;;;;5043716;28;20048;-74
2022/09/14 09:00:02;;;;;;;6.25;4.32;;;17.70;66.10;;;;;;5049686;28;20048;-74
2022/09/14 09:02:55;;;;;;;6.75;4.13;;;17.70;66.20;;;;;;5046543;28;20028;-73
2022/09/14 09:05:42;;;;;;;5.78;4.00;;;17.70;66.20;;;;;;5043892;28;20406;-74
2022/09/14 09:08:29;;;;;;;8.52;4.75;;;17.60;66.00;;;;;;5046472;28;20083;-74
2022/09/14 09:10:58;;;;;;;6.03;3.97;;;17.60;66.00;;;;;;5046835;28;20504;-75
2022/09/14 09:13:30;;;;;;;8.00;4.25;;;17.70;66.70;;;;;;5038781;28;20030;-74
2022/09/14 09:16:00;;;;;;;7.65;4.97;;;17.70;66.20;;;;;;5050956;28;20399;-75
2022/09/14 09:18:38;;;;;;;6.20;5.60;;;17.70;66.20;;;;;;5045483;28;20033;-73
2022/09/14 09:21:15;;;;;;;7.32;4.95;;;17.70;66.10;;;;;;5045059;28;20388;-74
2022/09/14 09:23:42;;;;;;;6.15;4.85;;;17.80;66.20;;;;;;5046110;28;20029;-75
2022/09/14 09:26:28;;;;;;;5.38;4.55;;;17.80;66.10;;;;;;5046082;28;20482;-75
2022/09/14 09:28:59;;;;;;;6.10;5.13;;;17.80;66.10;;;;;;5042190;28;20045;-74
2022/09/14 09:31:37;;;;;;;4.93;4.43;;;17.80;66.00;;;;;;5037789;28;20045;-74
2022/09/14 09:34:30;;;;;;;7.38;4.90;;;17.90;66.10;;;;;;5038048;28;20022;-75
2022/09/14 09:37:22;;;;;;;7.13;5.50;;;17.90;66.10;;;;;;5027462;28;20049;-74
2022/09/14 09:39:49;;;;;;;10.30;5.20;;;18.00;66.20;;;;;;5047563;28;20032;-74
2022/09/14 09:42:24;;;;;;;7.65;5.82;;;18.00;66.10;;;;;;5045032;28;20071;-74
2022/09/14 09:44:55;;;;;;;9.35;5.68;;;18.00;66.00;;;;;;5048596;28;20520;-75
2022/09/14 09:47:41;;;;;;;9.02;6.70;;;18.10;66.10;;;;;;5042369;28;20029;-75
2022/09/14 09:50:13;;;;;;;9.35;6.25;;;18.10;66.20;;;;;;5047600;28;20049;-73
2022/09/14 09:52:57;;;;;;;10.20;6.80;;;18.10;66.20;;;;;;5043608;28;20027;-76
2022/09/14 09:55:27;;;;;;;14.95;6.40;;;18.20;66.30;;;;;;5043622;28;20555;-74
2022/09/14 09:57:56;;;;;;;9.73;7.63;;;18.20;66.20;;;;;;5047524;28;20031;-76
2022/09/14 10:00:24;;;;;;;9.68;7.07;;;18.20;66.10;;;;;;5046257;28;20444;-76
2022/09/14 10:02:52;;;;;;;9.75;7.88;;;18.30;66.30;;;;;;5049118;28;20023;-74
2022/09/14 10:05:18;;;;;;;9.85;7.60;;;18.30;66.20;;;;;;5042234;28;20047;-74
2022/09/14 10:08:01;;;;;;;8.68;7.20;;;18.30;66.70;;;;;;5029723;28;20048;-75
2022/09/14 10:10:32;;;;;;;;;;;18.40;66.20;;;;;;5047413;28;20041;-74
2022/09/14 10:12:59;;;;;;;8.00;7.20;;;18.40;66.20;;;;;;5046669;28;20416;-76
2022/09/14 10:15:26;;;;;;;11.23;6.85;;;18.40;66.60;;;;;;5029667;28;20044;-78
2022/09/14 10:18:10;;;;;;;9.50;7.57;;;18.50;66.20;;;;;;5042082;28;20078;-75
2022/09/14 10:20:52;;;;;;;10.07;8.10;;;18.60;66.20;;;;;;5045371;28;20047;-75
2022/09/14 10:23:26;;;;;;;12.80;8.82;;;18.60;66.10;;;;;;5028933;28;20031;-74
2022/09/14 10:26:12;;;;;;;9.13;8.18;;;18.60;66.00;;;;;;5045992;28;20126;-74
2022/09/14 10:28:44;;;;;;;11.05;8.77;;;18.70;66.10;;;;;;5028422;28;20070;-73
2022/09/14 10:31:13;;;;;;;11.45;8.63;;;18.70;66.00;;;;;;5040223;28;20128;-76
2022/09/14 10:33:40;;;;;;;8.20;7.40;;;18.90;66.20;;;;;;5055224;28;20078;-75
2022/09/14 10:36:25;;;;;;;9.50;8.25;;;18.90;66.00;;;;;;5044458;28;20037;-75
2022/09/14 10:39:18;;;;;;;11.05;8.82;;;19.00;66.00;;;;;;5047041;28;20077;-75
2022/09/14 10:42:04;;;;;;;10.48;8.73;;;19.00;65.80;;;;;;5046764;28;20021;-76
2022/09/14 10:45:14;;;;;;;11.98;9.23;;;19.10;65.80;;;;;;5047513;28;20431;-75
2022/09/14 10:47:43;;;;;;;12.00;9.90;;;19.20;65.90;;;;;;5038768;28;20033;-75
2022/09/14 10:50:40;;;;;;;11.02;9.13;;;19.20;65.70;;;;;;5050417;28;20440;-74
2022/09/14 10:53:15;;;;;;;11.27;9.00;;;19.30;65.60;;;;;;5047960;28;20070;-75
2022/09/14 10:55:51;;;;;;;11.68;8.73;;;19.40;65.70;;;;;;5043238;28;20055;-75
2022/09/14 10:58:33;;;;;;;8.85;7.95;;;19.40;65.50;;;;;;5031291;28;20029;-76
2022/09/14 11:01:17;;;;;;;10.75;8.10;;;19.50;65.40;;;;;;5047815;28;20033;-77
2022/09/14 11:04:06;;;;;;;10.30;7.10;;;19.60;65.40;;;;;;5053822;28;20202;-75
2022/09/14 11:07:06;;;;;;;14.13;8.48;;;19.60;65.30;;;;;;5038028;28;20152;-76
2022/09/14 11:10:03;;;;;;;12.27;8.13;;;19.70;65.40;;;;;;5048061;28;20595;-75
2022/09/14 11:12:53;;;;;;;9.15;6.55;;;19.90;65.60;;;;;;5044976;28;20025;-75
2022/09/14 11:15:59;;;;;;;10.07;6.97;;;19.90;65.40;;;;;;5048195;28;20048;-75
2022/09/14 11:18:40;;;;;;;8.40;6.68;;;20.00;65.40;;;;;;5047168;28;20040;-74
2022/09/14 11:21:14;;;;;;;12.77;8.05;;;20.00;65.30;;;;;;5045325;28;20037;-75
2022/09/14 11:23:53;;;;;;;7.20;6.50;;;20.10;65.40;;;;;;5043814;28;20037;-75
2022/09/14 11:26:30;;;;;;;9.02;7.40;;;20.10;65.30;;;;;;5047701;28;20401;-74
2022/09/14 11:29:19;;;;;;;8.30;6.82;;;20.20;65.40;;;;;;5043655;28;20033;-75
2022/09/14 11:32:04;;;;;;;9.90;7.40;;;20.20;65.10;;;;;;5048155;28;20082;-74
2022/09/14 11:34:46;;;;;;;11.10;7.40;;;20.30;65.20;;;;;;5047892;28;20040;-75
2022/09/14 11:37:16;;;;;;;10.50;6.40;;;20.30;65.10;;;;;;5049982;28;20025;-76
2022/09/14 11:39:48;;;;;;;8.45;7.00;;;20.40;65.20;;;;;;5051139;28;20278;-75
2022/09/14 11:42:25;;;;;;;10.48;6.40;;;20.40;65.10;;;;;;5055954;28;20134;-74
2022/09/14 11:45:01;;;;;;;10.93;7.10;;;20.50;65.10;;;;;;5050691;28;20033;-74
2022/09/14 11:47:32;;;;;;;8.48;7.13;;;20.50;65.00;;;;;;5045930;28;20052;-74
2022/09/14 11:50:21;;;;;;;8.85;7.13;;;20.60;65.10;;;;;;5052416;28;20052;-74
2022/09/14 11:53:01;;;;;;;8.43;6.60;;;20.60;64.80;;;;;;5051189;28;20044;-74
2022/09/14 11:55:27;;;;;;;8.50;7.10;;;20.60;64.80;;;;;;5055785;28;20108;-75
2022/09/14 11:57:53;;;;;;;7.30;6.57;;;20.70;64.80;;;;;;5050001;28;20056;-75
2022/09/14 12:00:23;;;;;;;9.10;5.93;;;20.80;64.90;;;;;;5065897;28;20037;-75
2022/09/14 12:03:00;;;;;;;8.63;6.78;;;20.80;64.70;;;;;;5059755;28;20100;-75
2022/09/14 12:05:29;;;;;;;9.38;6.43;;;20.80;64.50;;;;;;5063056;28;20082;-76
2022/09/14 12:08:00;;;;;;;7.63;6.05;;;20.90;64.60;;;;;;5053301;28;20454;-76
2022/09/14 12:10:26;;;;;;;8.27;6.25;;;20.90;64.40;;;;;;5048833;28;20344;-75
2022/09/14 12:12:53;;;;;;;7.65;6.18;;;21.00;64.40;;;;;;5049525;28;20028;-76
2022/09/14 12:15:28;;;;;;;8.13;6.63;;;21.10;64.30;;;;;;5052612;28;20419;-75
2022/09/14 12:18:08;;;;;;;8.90;6.03;;;21.10;64.10;;;;;;5048070;28;20546;-77
2022/09/14 12:20:42;;;;;;;10.65;7.50;;;21.20;64.00;;;;;;5049364;28;20037;-75
2022/09/14 12:23:38;;;;;;;6.25;5.60;;;21.30;64.10;;;;;;5048546;28;20085;-76
2022/09/14 12:26:30;;;;;;;7.72;5.93;;;21.30;63.80;;;;;;5048502;28;20381;-76
2022/09/14 12:29:03;;;;;;;8.55;5.80;;;21.40;63.80;;;;;;5051070;28;20041;-77
2022/09/14 12:31:46;;;;;;;9.77;6.07;;;21.40;63.80;;;;;;5051634;28;20052;-75
2022/09/14 12:34:26;;;;;;;;;;;21.50;63.70;;;;;;5051319;28;20041;-75
2022/09/14 12:36:59;;;;;;;9.20;6.47;;;21.50;63.70;;;;;;5043290;28;19909;-76
2022/09/14 12:39:31;;;;;;;8.07;6.00;;;21.60;63.80;;;;;;5041458;28;20033;-75
2022/09/14 12:42:26;;;;;;;9.07;6.25;;;21.60;63.50;;;;;;5056956;28;20029;-75
2022/09/14 12:44:52;;;;;;;8.10;6.07;;;21.70;63.50;;;;;;5051811;28;20047;-79
2022/09/14 12:47:24;;;;;;;12.48;5.22;;;21.70;63.40;;;;;;5044087;28;20131;-77
2022/09/14 12:49:57;;;;;;;6.88;4.95;;;21.70;62.90;;;;;;5050411;28;20063;-77
2022/09/14 12:52:39;;;;;;;7.45;5.72;;;21.80;62.90;;;;;;5045974;28;20100;-76
2022/09/14 12:55:13;;;;;;;6.72;4.85;;;21.90;62.80;;;;;;5050945;28;20147;-78
2022/09/14 12:57:55;;;;;;;10.15;6.20;;;21.90;62.80;;;;;;5059369;28;20054;-77
2022/09/14 13:00:25;;;;;;;7.40;4.90;;;22.00;62.90;;;;;;5055450;28;20020;-77
2022/09/14 13:03:17;;;;;;;5.43;4.35;;;22.20;63.10;;;;;;5050155;28;20045;-76
2022/09/14 13:05:50;;;;;;;5.95;4.55;;;22.30;62.90;;;;;;5045338;28;20125;-76
2022/09/14 13:08:22;;;;;;;7.18;4.90;;;22.40;62.80;;;;;;5053978;28;20028;-77
2022/09/14 13:10:52;;;;;;;9.77;5.03;;;22.50;62.80;;;;;;5046492;28;20048;-75
2022/09/14 13:13:41;;;;;;;8.73;4.90;;;22.60;62.70;;;;;;5045288;28;20583;-80